SWA4018 KRNO-KLGB
Flight info
| Callsign | SWA4018 |
|---|---|
| Flight time | 1h 1m |
| Altitude | 35000 |
| Route | ZEFFR9 DARBI FRA REBRG PCIFC3 |
| Aircraft | B38M/M-SADE2E3GHIJ4J7P2RWZ/LB1D1 |
Departure
| Time | 2026-05-07 07:37 |
|---|---|
| Airport | Reno Tahoe International Airport (KRNO) |
Arrival
| Time | 2026-05-07 08:39 |
|---|---|
| Airport | Long Beach International Airport (KLGB) |
| Time | Latitude | Longitude | Altitude | Speed | Heading |
|---|---|---|---|---|---|
| 2026-05-07 07:06 | 39.50438 | -119.77279 | 4422 ft | 0 kts | 358° |
| 2026-05-07 07:22 | 39.50423 | -119.77278 | 4420 ft | 4 kts | 354° |
| 2026-05-07 07:23 | 39.50398 | -119.77276 | 4420 ft | 4 kts | 12° |
| 2026-05-07 07:23 | 39.50379 | -119.77291 | 4421 ft | 4 kts | 59° |
| 2026-05-07 07:23 | 39.50374 | -119.77311 | 4420 ft | 0 kts | 90° |
| 2026-05-07 07:33 | 39.50374 | -119.77310 | 4420 ft | 1 kts | 90° |
| 2026-05-07 07:33 | 39.50374 | -119.77259 | 4420 ft | 11 kts | 90° |
| 2026-05-07 07:33 | 39.50375 | -119.77136 | 4420 ft | 15 kts | 88° |
| 2026-05-07 07:33 | 39.50418 | -119.77068 | 4422 ft | 10 kts | 6° |
| 2026-05-07 07:34 | 39.50509 | -119.77067 | 4420 ft | 16 kts | 360° |
| 2026-05-07 07:34 | 39.50630 | -119.77067 | 4421 ft | 16 kts | 0° |
| 2026-05-07 07:34 | 39.50751 | -119.77067 | 4421 ft | 18 kts | 0° |
| 2026-05-07 07:34 | 39.50881 | -119.77066 | 4421 ft | 20 kts | 0° |
| 2026-05-07 07:35 | 39.51017 | -119.77066 | 4422 ft | 19 kts | 0° |
| 2026-05-07 07:35 | 39.51153 | -119.77066 | 4421 ft | 20 kts | 0° |
| 2026-05-07 07:35 | 39.51290 | -119.77065 | 4423 ft | 16 kts | 0° |
| 2026-05-07 07:35 | 39.51371 | -119.77037 | 4422 ft | 11 kts | 52° |
| 2026-05-07 07:36 | 39.51369 | -119.76949 | 4421 ft | 9 kts | 121° |
| 2026-05-07 07:36 | 39.51327 | -119.76925 | 4423 ft | 0 kts | 178° |
| 2026-05-07 07:36 | 39.51290 | -119.76924 | 4422 ft | 29 kts | 179° |
| 2026-05-07 07:37 | 39.50828 | -119.76926 | 4423 ft | 102 kts | 180° |
| 2026-05-07 07:37 | 39.49904 | -119.76926 | 4419 ft | 161 kts | 180° |
| 2026-05-07 07:37 | 39.48678 | -119.76930 | 4749 ft | 183 kts | 180° |
| 2026-05-07 07:37 | 39.47350 | -119.76897 | 5387 ft | 196 kts | 178° |
| 2026-05-07 07:38 | 39.46002 | -119.76863 | 6247 ft | 196 kts | 179° |
| 2026-05-07 07:38 | 39.44553 | -119.76849 | 6616 ft | 223 kts | 179° |
| 2026-05-07 07:38 | 39.42925 | -119.76863 | 7140 ft | 243 kts | 179° |
| 2026-05-07 07:38 | 39.41182 | -119.76876 | 7829 ft | 254 kts | 179° |
| 2026-05-07 07:39 | 39.39380 | -119.76899 | 8604 ft | 263 kts | 179° |
| 2026-05-07 07:39 | 39.37517 | -119.76928 | 9354 ft | 272 kts | 179° |
| 2026-05-07 07:39 | 39.35598 | -119.76946 | 10057 ft | 283 kts | 180° |
| 2026-05-07 07:39 | 39.33567 | -119.76961 | 10527 ft | 301 kts | 180° |
| 2026-05-07 07:40 | 39.31400 | -119.76933 | 10914 ft | 321 kts | 178° |
| 2026-05-07 07:40 | 39.29109 | -119.76839 | 11425 ft | 337 kts | 179° |
| 2026-05-07 07:40 | 39.26723 | -119.76747 | 12060 ft | 347 kts | 179° |
| 2026-05-07 07:40 | 39.24295 | -119.76657 | 12894 ft | 351 kts | 180° |
| 2026-05-07 07:41 | 39.21822 | -119.76564 | 13598 ft | 361 kts | 180° |
| 2026-05-07 07:41 | 39.20152 | -119.76501 | 14043 ft | 366 kts | 180° |
| 2026-05-07 07:41 | 39.17582 | -119.76406 | 14833 ft | 372 kts | 179° |
| 2026-05-07 07:41 | 39.14965 | -119.76310 | 15599 ft | 379 kts | 179° |
| 2026-05-07 07:42 | 39.12317 | -119.76213 | 16428 ft | 383 kts | 179° |
| 2026-05-07 07:42 | 39.09632 | -119.76115 | 17181 ft | 388 kts | 179° |
| 2026-05-07 07:42 | 39.06919 | -119.76015 | 17929 ft | 393 kts | 179° |
| 2026-05-07 07:42 | 39.04169 | -119.75915 | 18652 ft | 397 kts | 179° |
| 2026-05-07 07:43 | 39.01393 | -119.75813 | 19349 ft | 402 kts | 179° |
| 2026-05-07 07:43 | 38.98585 | -119.75709 | 20013 ft | 406 kts | 179° |
| 2026-05-07 07:43 | 38.95744 | -119.75603 | 20684 ft | 410 kts | 179° |
| 2026-05-07 07:43 | 38.92880 | -119.75495 | 21314 ft | 414 kts | 179° |
| 2026-05-07 07:44 | 38.89982 | -119.75387 | 21920 ft | 419 kts | 178° |
| 2026-05-07 07:44 | 38.87058 | -119.75278 | 22543 ft | 422 kts | 179° |
| 2026-05-07 07:44 | 38.84100 | -119.75167 | 23110 ft | 427 kts | 178° |
| 2026-05-07 07:44 | 38.81131 | -119.75056 | 23705 ft | 430 kts | 178° |
| 2026-05-07 07:45 | 38.78123 | -119.74944 | 24241 ft | 435 kts | 178° |
| 2026-05-07 07:45 | 38.75087 | -119.74831 | 24773 ft | 439 kts | 178° |
| 2026-05-07 07:45 | 38.72024 | -119.74716 | 25287 ft | 442 kts | 178° |
| 2026-05-07 07:45 | 38.68934 | -119.74601 | 25778 ft | 446 kts | 178° |
| 2026-05-07 07:46 | 38.65854 | -119.74487 | 26222 ft | 451 kts | 178° |
| 2026-05-07 07:46 | 38.62717 | -119.74370 | 26709 ft | 454 kts | 178° |
| 2026-05-07 07:46 | 38.59542 | -119.74253 | 27161 ft | 457 kts | 178° |
| 2026-05-07 07:46 | 38.56353 | -119.74134 | 27635 ft | 460 kts | 178° |
| 2026-05-07 07:47 | 38.53139 | -119.74015 | 28072 ft | 464 kts | 178° |
| 2026-05-07 07:47 | 38.49900 | -119.73895 | 28489 ft | 467 kts | 178° |
| 2026-05-07 07:47 | 38.46640 | -119.73774 | 28928 ft | 470 kts | 179° |
| 2026-05-07 07:47 | 38.43352 | -119.73653 | 29331 ft | 474 kts | 178° |
| 2026-05-07 07:48 | 38.40052 | -119.73531 | 29719 ft | 477 kts | 179° |
| 2026-05-07 07:48 | 38.36722 | -119.73408 | 30129 ft | 480 kts | 179° |
| 2026-05-07 07:48 | 38.33378 | -119.73285 | 30487 ft | 483 kts | 179° |
| 2026-05-07 07:48 | 38.30005 | -119.73111 | 30839 ft | 486 kts | 175° |
| 2026-05-07 07:49 | 38.26632 | -119.72679 | 31217 ft | 489 kts | 175° |
| 2026-05-07 07:49 | 38.23237 | -119.72265 | 31584 ft | 492 kts | 175° |
| 2026-05-07 07:49 | 38.19827 | -119.71868 | 31917 ft | 495 kts | 175° |
| 2026-05-07 07:49 | 38.16390 | -119.71474 | 32339 ft | 495 kts | 175° |
| 2026-05-07 07:50 | 38.12960 | -119.71082 | 32822 ft | 494 kts | 175° |
| 2026-05-07 07:50 | 38.09537 | -119.70692 | 33279 ft | 494 kts | 176° |
| 2026-05-07 07:50 | 38.06116 | -119.70302 | 33740 ft | 493 kts | 176° |
| 2026-05-07 07:50 | 38.02700 | -119.69913 | 34197 ft | 493 kts | 176° |
| 2026-05-07 07:51 | 37.99326 | -119.69529 | 34621 ft | 493 kts | 176° |
| 2026-05-07 07:51 | 37.95916 | -119.69142 | 35041 ft | 492 kts | 176° |
| 2026-05-07 07:51 | 37.92497 | -119.68754 | 35221 ft | 494 kts | 176° |
| 2026-05-07 07:52 | 37.85677 | -119.67980 | 35220 ft | 491 kts | 176° |
| 2026-05-07 07:52 | 37.78867 | -119.67210 | 35228 ft | 491 kts | 176° |
| 2026-05-07 07:53 | 37.72064 | -119.66442 | 35225 ft | 491 kts | 176° |
| 2026-05-07 07:53 | 37.65268 | -119.65676 | 35229 ft | 491 kts | 176° |
| 2026-05-07 07:54 | 37.58468 | -119.64910 | 35230 ft | 491 kts | 176° |
| 2026-05-07 07:54 | 37.51656 | -119.64145 | 35212 ft | 491 kts | 176° |
| 2026-05-07 07:55 | 37.44855 | -119.63384 | 35205 ft | 491 kts | 176° |
| 2026-05-07 07:55 | 37.38053 | -119.62622 | 35193 ft | 491 kts | 176° |
| 2026-05-07 07:56 | 37.31251 | -119.61862 | 35185 ft | 491 kts | 176° |
| 2026-05-07 07:56 | 37.24450 | -119.61105 | 35169 ft | 491 kts | 176° |
| 2026-05-07 07:57 | 37.17647 | -119.60347 | 35168 ft | 491 kts | 175° |
| 2026-05-07 07:57 | 37.10840 | -119.59620 | 35143 ft | 490 kts | 179° |
| 2026-05-07 07:58 | 37.04035 | -119.59662 | 35142 ft | 490 kts | 181° |
| 2026-05-07 07:58 | 36.97217 | -119.59775 | 35125 ft | 490 kts | 181° |
| 2026-05-07 07:59 | 36.90400 | -119.59893 | 35126 ft | 489 kts | 181° |
| 2026-05-07 07:59 | 36.83615 | -119.60010 | 35127 ft | 489 kts | 181° |
| 2026-05-07 08:00 | 36.77315 | -119.60119 | 35127 ft | 489 kts | 181° |
| 2026-05-07 08:00 | 36.72591 | -119.60201 | 35128 ft | 490 kts | 181° |
| 2026-05-07 08:01 | 36.67426 | -119.60289 | 35118 ft | 490 kts | 181° |
| 2026-05-07 08:01 | 36.60839 | -119.60403 | 35120 ft | 490 kts | 181° |
| 2026-05-07 08:02 | 36.54312 | -119.60515 | 35120 ft | 489 kts | 181° |
| 2026-05-07 08:02 | 36.47518 | -119.60631 | 35121 ft | 489 kts | 181° |
| 2026-05-07 08:03 | 36.40719 | -119.60748 | 35129 ft | 489 kts | 181° |
| 2026-05-07 08:03 | 36.33914 | -119.60864 | 35138 ft | 489 kts | 181° |
| 2026-05-07 08:04 | 36.27102 | -119.60981 | 35138 ft | 489 kts | 180° |
| 2026-05-07 08:04 | 36.20295 | -119.61097 | 35136 ft | 489 kts | 180° |
| 2026-05-07 08:05 | 36.13496 | -119.61212 | 35134 ft | 489 kts | 180° |
| 2026-05-07 08:05 | 36.06684 | -119.61327 | 35137 ft | 489 kts | 180° |
| 2026-05-07 08:06 | 35.99881 | -119.61443 | 35140 ft | 489 kts | 180° |
| 2026-05-07 08:06 | 35.93139 | -119.62511 | 35136 ft | 489 kts | 189° |
| 2026-05-07 08:07 | 35.86423 | -119.63863 | 35138 ft | 489 kts | 189° |
| 2026-05-07 08:07 | 35.79704 | -119.65229 | 35137 ft | 489 kts | 189° |
| 2026-05-07 08:08 | 35.72983 | -119.66594 | 35134 ft | 489 kts | 189° |
| 2026-05-07 08:08 | 35.66273 | -119.67315 | 35125 ft | 488 kts | 171° |
| 2026-05-07 08:08 | 35.63007 | -119.66303 | 35138 ft | 484 kts | 156° |
| 2026-05-07 08:09 | 35.59909 | -119.64672 | 35122 ft | 486 kts | 155° |
| 2026-05-07 08:09 | 35.53717 | -119.61336 | 35129 ft | 485 kts | 154° |
| 2026-05-07 08:10 | 35.47560 | -119.57949 | 35128 ft | 485 kts | 154° |
| 2026-05-07 08:10 | 35.41404 | -119.54556 | 35127 ft | 485 kts | 154° |
| 2026-05-07 08:11 | 35.35240 | -119.51165 | 35149 ft | 486 kts | 154° |
| 2026-05-07 08:11 | 35.29071 | -119.47777 | 35139 ft | 485 kts | 154° |
| 2026-05-07 08:12 | 35.22954 | -119.44423 | 35141 ft | 485 kts | 154° |
| 2026-05-07 08:12 | 35.16789 | -119.41047 | 35143 ft | 486 kts | 153° |
| 2026-05-07 08:13 | 35.10619 | -119.37676 | 35146 ft | 485 kts | 153° |
| 2026-05-07 08:13 | 35.04448 | -119.34309 | 35148 ft | 486 kts | 153° |
| 2026-05-07 08:14 | 34.98283 | -119.30951 | 35146 ft | 485 kts | 153° |
| 2026-05-07 08:14 | 34.92114 | -119.27596 | 35155 ft | 486 kts | 153° |
| 2026-05-07 08:15 | 34.85935 | -119.24241 | 35157 ft | 486 kts | 153° |
| 2026-05-07 08:15 | 34.79765 | -119.20897 | 35147 ft | 485 kts | 153° |
| 2026-05-07 08:15 | 34.76693 | -119.19234 | 34451 ft | 482 kts | 153° |
| 2026-05-07 08:16 | 34.73629 | -119.17516 | 33429 ft | 487 kts | 149° |
| 2026-05-07 08:16 | 34.70619 | -119.15581 | 32383 ft | 492 kts | 149° |
| 2026-05-07 08:16 | 34.67585 | -119.13656 | 31515 ft | 492 kts | 150° |
| 2026-05-07 08:16 | 34.64563 | -119.11760 | 30599 ft | 483 kts | 150° |
| 2026-05-07 08:17 | 34.61615 | -119.09915 | 29852 ft | 475 kts | 150° |
| 2026-05-07 08:17 | 34.58678 | -119.08077 | 29061 ft | 474 kts | 149° |
| 2026-05-07 08:17 | 34.55758 | -119.06189 | 28012 ft | 479 kts | 149° |
| 2026-05-07 08:17 | 34.52828 | -119.04290 | 27458 ft | 472 kts | 149° |
| 2026-05-07 08:18 | 34.49981 | -119.02451 | 27336 ft | 456 kts | 149° |
| 2026-05-07 08:18 | 34.47223 | -119.00673 | 27087 ft | 444 kts | 149° |
| 2026-05-07 08:18 | 34.44526 | -118.98916 | 26722 ft | 436 kts | 148° |
| 2026-05-07 08:18 | 34.41878 | -118.97150 | 26115 ft | 434 kts | 148° |
| 2026-05-07 08:19 | 34.39244 | -118.95401 | 25623 ft | 429 kts | 148° |
| 2026-05-07 08:19 | 34.36637 | -118.93672 | 25105 ft | 426 kts | 148° |
| 2026-05-07 08:19 | 34.34048 | -118.91957 | 24579 ft | 423 kts | 148° |
| 2026-05-07 08:19 | 34.31471 | -118.90252 | 24051 ft | 421 kts | 148° |
| 2026-05-07 08:20 | 34.28908 | -118.88555 | 23535 ft | 418 kts | 148° |
| 2026-05-07 08:20 | 34.26361 | -118.86874 | 23043 ft | 415 kts | 148° |
| 2026-05-07 08:20 | 34.23835 | -118.85205 | 22542 ft | 412 kts | 148° |
| 2026-05-07 08:20 | 34.21180 | -118.83888 | 21982 ft | 415 kts | 160° |
| 2026-05-07 08:21 | 34.18444 | -118.82825 | 21504 ft | 411 kts | 159° |
| 2026-05-07 08:21 | 34.15736 | -118.81752 | 21026 ft | 408 kts | 159° |
| 2026-05-07 08:21 | 34.13047 | -118.80688 | 20574 ft | 405 kts | 159° |
| 2026-05-07 08:21 | 34.10381 | -118.79633 | 20092 ft | 402 kts | 159° |
| 2026-05-07 08:22 | 34.07733 | -118.78591 | 19615 ft | 399 kts | 159° |
| 2026-05-07 08:22 | 34.05100 | -118.77571 | 19142 ft | 396 kts | 159° |
| 2026-05-07 08:22 | 34.02485 | -118.76557 | 18711 ft | 392 kts | 159° |
| 2026-05-07 08:22 | 33.99903 | -118.75556 | 18278 ft | 388 kts | 159° |
| 2026-05-07 08:23 | 33.97346 | -118.74565 | 17861 ft | 384 kts | 159° |
| 2026-05-07 08:23 | 33.94815 | -118.73585 | 17433 ft | 381 kts | 159° |
| 2026-05-07 08:23 | 33.92295 | -118.72610 | 16948 ft | 379 kts | 159° |
| 2026-05-07 08:23 | 33.89789 | -118.71641 | 16441 ft | 378 kts | 159° |
| 2026-05-07 08:24 | 33.87294 | -118.70678 | 16044 ft | 375 kts | 159° |
| 2026-05-07 08:24 | 33.84826 | -118.69725 | 15640 ft | 371 kts | 159° |
| 2026-05-07 08:24 | 33.82380 | -118.68782 | 15231 ft | 367 kts | 159° |
| 2026-05-07 08:24 | 33.79963 | -118.67851 | 14825 ft | 364 kts | 159° |
| 2026-05-07 08:25 | 33.77564 | -118.66926 | 14425 ft | 360 kts | 159° |
| 2026-05-07 08:25 | 33.75187 | -118.66017 | 14025 ft | 357 kts | 161° |
| 2026-05-07 08:25 | 33.72732 | -118.65529 | 13589 ft | 359 kts | 172° |
| 2026-05-07 08:25 | 33.70260 | -118.65235 | 13165 ft | 356 kts | 171° |
| 2026-05-07 08:26 | 33.65371 | -118.64620 | 12353 ft | 350 kts | 171° |
| 2026-05-07 08:26 | 33.62960 | -118.64313 | 11953 ft | 347 kts | 170° |
| 2026-05-07 08:26 | 33.60711 | -118.63571 | 11483 ft | 327 kts | 148° |
| 2026-05-07 08:27 | 33.59031 | -118.61890 | 11085 ft | 306 kts | 123° |
| 2026-05-07 08:27 | 33.57967 | -118.59743 | 10805 ft | 297 kts | 116° |
| 2026-05-07 08:27 | 33.57315 | -118.58310 | 10595 ft | 295 kts | 116° |
| 2026-05-07 08:27 | 33.56027 | -118.55422 | 10121 ft | 293 kts | 116° |
| 2026-05-07 08:28 | 33.55079 | -118.53266 | 9769 ft | 292 kts | 116° |
| 2026-05-07 08:28 | 33.54457 | -118.51842 | 9545 ft | 291 kts | 116° |
| 2026-05-07 08:28 | 33.53522 | -118.49692 | 9202 ft | 290 kts | 116° |
| 2026-05-07 08:28 | 33.52602 | -118.47547 | 8854 ft | 289 kts | 113° |
| 2026-05-07 08:29 | 33.52154 | -118.45226 | 8458 ft | 287 kts | 91° |
| 2026-05-07 08:29 | 33.52093 | -118.42846 | 8132 ft | 285 kts | 91° |
| 2026-05-07 08:29 | 33.52021 | -118.40480 | 7800 ft | 284 kts | 91° |
| 2026-05-07 08:29 | 33.51955 | -118.38124 | 7465 ft | 282 kts | 91° |
| 2026-05-07 08:30 | 33.51906 | -118.35773 | 7134 ft | 281 kts | 86° |
| 2026-05-07 08:30 | 33.52418 | -118.33565 | 6791 ft | 276 kts | 57° |
| 2026-05-07 08:30 | 33.53747 | -118.31963 | 6509 ft | 270 kts | 30° |
| 2026-05-07 08:30 | 33.55374 | -118.30881 | 6272 ft | 265 kts | 28° |
| 2026-05-07 08:31 | 33.56976 | -118.29810 | 6007 ft | 262 kts | 28° |
| 2026-05-07 08:31 | 33.58563 | -118.28755 | 5742 ft | 259 kts | 28° |
| 2026-05-07 08:31 | 33.60179 | -118.27823 | 5472 ft | 256 kts | 22° |
| 2026-05-07 08:31 | 33.61807 | -118.26997 | 5218 ft | 253 kts | 22° |
| 2026-05-07 08:32 | 33.63415 | -118.26170 | 4983 ft | 250 kts | 22° |
| 2026-05-07 08:32 | 33.64974 | -118.25361 | 4822 ft | 237 kts | 22° |
| 2026-05-07 08:32 | 33.66448 | -118.24592 | 4595 ft | 226 kts | 22° |
| 2026-05-07 08:32 | 33.67862 | -118.23853 | 4338 ft | 217 kts | 22° |
| 2026-05-07 08:33 | 33.69218 | -118.23142 | 4126 ft | 208 kts | 23° |
| 2026-05-07 08:33 | 33.70549 | -118.22572 | 3890 ft | 200 kts | 5° |
| 2026-05-07 08:33 | 33.71897 | -118.22741 | 3670 ft | 192 kts | 347° |
| 2026-05-07 08:33 | 33.73176 | -118.23084 | 3500 ft | 184 kts | 346° |
| 2026-05-07 08:34 | 33.74402 | -118.23431 | 3317 ft | 177 kts | 346° |
| 2026-05-07 08:34 | 33.75596 | -118.23779 | 3157 ft | 176 kts | 346° |
| 2026-05-07 08:34 | 33.76778 | -118.24146 | 3027 ft | 175 kts | 344° |
| 2026-05-07 08:34 | 33.77948 | -118.24530 | 2901 ft | 174 kts | 344° |
| 2026-05-07 08:35 | 33.79113 | -118.24916 | 2764 ft | 173 kts | 344° |
| 2026-05-07 08:35 | 33.80274 | -118.25296 | 2667 ft | 174 kts | 344° |
| 2026-05-07 08:35 | 33.81446 | -118.25683 | 2550 ft | 174 kts | 346° |
| 2026-05-07 08:35 | 33.82621 | -118.25884 | 2405 ft | 164 kts | 359° |
| 2026-05-07 08:36 | 33.83707 | -118.25685 | 2147 ft | 156 kts | 18° |
| 2026-05-07 08:36 | 33.84645 | -118.25090 | 1988 ft | 152 kts | 36° |
| 2026-05-07 08:36 | 33.85385 | -118.24185 | 1799 ft | 153 kts | 53° |
| 2026-05-07 08:36 | 33.85861 | -118.23050 | 1509 ft | 152 kts | 71° |
| 2026-05-07 08:37 | 33.86018 | -118.21802 | 1254 ft | 151 kts | 89° |
| 2026-05-07 08:37 | 33.85839 | -118.20561 | 1030 ft | 150 kts | 108° |
| 2026-05-07 08:37 | 33.85365 | -118.19454 | 839 ft | 149 kts | 124° |
| 2026-05-07 08:37 | 33.84659 | -118.18545 | 657 ft | 150 kts | 137° |
| 2026-05-07 08:38 | 33.83894 | -118.17696 | 465 ft | 149 kts | 135° |
| 2026-05-07 08:38 | 33.83163 | -118.16812 | 291 ft | 149 kts | 134° |
| 2026-05-07 08:38 | 33.82431 | -118.15925 | 108 ft | 149 kts | 134° |
| 2026-05-07 08:38 | 33.81736 | -118.15081 | 47 ft | 128 kts | 135° |
| 2026-05-07 08:39 | 33.81275 | -118.14526 | 44 ft | 48 kts | 135° |
| 2026-05-07 08:39 | 33.81193 | -118.14374 | 44 ft | 15 kts | 65° |
| 2026-05-07 08:39 | 33.81262 | -118.14333 | 45 ft | 12 kts | 343° |
| 2026-05-07 08:39 | 33.81331 | -118.14408 | 45 ft | 15 kts | 315° |
| 2026-05-07 08:40 | 33.81418 | -118.14513 | 45 ft | 20 kts | 315° |
| 2026-05-07 08:40 | 33.81529 | -118.14647 | 46 ft | 24 kts | 314° |
| 2026-05-07 08:40 | 33.81632 | -118.14706 | 46 ft | 17 kts | 4° |
| 2026-05-07 08:40 | 33.81723 | -118.14700 | 45 ft | 5 kts | 0° |
| 2026-05-07 08:41 | 33.81773 | -118.14700 | 45 ft | 9 kts | 360° |
| 2026-05-07 08:41 | 33.81830 | -118.14679 | 45 ft | 4 kts | 73° |
| 2026-05-07 08:41 | 33.81821 | -118.14646 | 45 ft | 6 kts | 103° |
| 2026-05-07 08:41 | 33.81821 | -118.14613 | 45 ft | 3 kts | 89° |
| 2026-05-07 08:42 | 33.81821 | -118.14604 | 45 ft | 0 kts | 89° |